createdAt,value
2023-04-10T00:01:05.501Z,5.44
2023-04-10T00:11:07.801Z,5.47
2023-04-10T00:21:10.302Z,5.48
2023-04-10T00:31:12.593Z,5.52
2023-04-10T00:41:14.887Z,5.53
2023-04-10T00:51:17.753Z,5.55
2023-04-10T01:01:20.036Z,5.51
2023-04-10T01:11:43.156Z,5.47
2023-04-10T01:21:46.419Z,5.49
2023-04-10T01:32:01.989Z,5.51
2023-04-10T01:42:07.589Z,5.51
2023-04-10T01:52:11.874Z,5.32
2023-04-10T05:05:13.192Z,2.69
2023-04-10T05:15:15.775Z,3.54
2023-04-10T05:25:18.176Z,4.14
2023-04-10T05:35:20.517Z,4.62
2023-04-10T05:45:22.883Z,5.17
2023-04-10T05:55:25.483Z,5.62
2023-04-10T06:05:28.040Z,6.09
2023-04-10T06:15:30.714Z,6.58
2023-04-10T06:25:33.079Z,7.17
2023-04-10T06:35:36.157Z,8.32
2023-04-10T06:45:38.596Z,10.15
2023-04-10T06:55:41.212Z,10.98
2023-04-10T07:05:43.911Z,12.00
2023-04-10T07:15:46.289Z,12.33
2023-04-10T07:25:48.615Z,14.78
2023-04-10T07:35:51.044Z,14.55
2023-04-10T07:45:53.450Z,15.79
2023-04-10T07:55:55.764Z,15.53
2023-04-10T08:05:58.082Z,16.83
2023-04-10T08:16:00.500Z,16.89
2023-04-10T08:26:02.812Z,15.92
2023-04-10T08:36:06.205Z,12.64
2023-04-10T08:46:08.641Z,12.57
2023-04-10T08:56:14.820Z,12.02
2023-04-10T09:06:17.167Z,12.65
2023-04-10T09:16:29.425Z,12.68
2023-04-10T09:26:33.836Z,12.35
2023-04-10T09:36:41.357Z,12.00
2023-04-10T09:46:43.823Z,12.11
2023-04-10T09:56:48.287Z,12.74
2023-04-10T10:06:51.049Z,12.70
2023-04-10T10:16:58.693Z,13.16
2023-04-10T10:27:02.812Z,13.15
2023-04-10T10:37:06.262Z,13.75
2023-04-10T10:47:16.658Z,12.92
2023-04-10T10:57:46.968Z,13.58
2023-04-10T11:08:04.405Z,14.25
2023-04-10T11:18:06.791Z,15.34
2023-04-10T11:28:09.165Z,15.67
2023-04-10T11:38:13.594Z,15.17
2023-04-10T11:48:17.585Z,14.88
2023-04-10T11:58:27.318Z,14.99
2023-04-10T12:08:37.771Z,15.36
2023-04-10T12:18:40.980Z,16.00
2023-04-10T12:28:53.386Z,15.87
2023-04-10T12:39:00.627Z,16.21
2023-04-10T12:49:18.971Z,16.47
2023-04-10T12:59:22.543Z,15.40
2023-04-10T13:09:25.950Z,15.37
2023-04-10T13:19:28.300Z,15.55
2023-04-10T13:29:30.824Z,15.05
2023-04-10T13:39:33.168Z,15.56
2023-04-10T13:49:35.504Z,15.47
2023-04-10T13:59:37.973Z,14.59
2023-04-10T14:09:40.998Z,14.68
2023-04-10T14:19:43.646Z,15.71
2023-04-10T14:29:54.379Z,15.54
2023-04-10T14:39:57.133Z,14.69
2023-04-10T14:49:59.465Z,14.75
2023-04-10T15:00:02.754Z,14.80
2023-04-10T15:10:05.673Z,15.13
2023-04-10T15:20:08.420Z,15.11
2023-04-10T15:30:11.267Z,14.74
2023-04-10T15:40:13.665Z,14.07
2023-04-10T15:50:16.144Z,13.24
2023-04-10T16:00:19.006Z,12.57
2023-04-10T16:10:21.662Z,12.61
2023-04-10T16:20:24.080Z,12.48
2023-04-10T16:30:26.347Z,12.30
2023-04-10T16:40:33.076Z,11.79
2023-04-10T16:50:38.681Z,11.40
2023-04-10T17:00:41.107Z,11.02
2023-04-10T17:10:43.536Z,10.11
2023-04-10T17:20:48.150Z,9.12
2023-04-10T17:30:50.608Z,8.29
2023-04-10T17:40:53.009Z,7.85
2023-04-10T17:50:55.521Z,7.08
2023-04-10T18:00:57.854Z,6.35
2023-04-10T18:11:00.185Z,5.70
2023-04-10T18:21:04.098Z,5.17
2023-04-10T18:31:06.665Z,4.78
2023-04-10T18:41:09.099Z,4.37
2023-04-10T18:51:11.894Z,4.16
2023-04-10T19:01:14.415Z,3.94
2023-04-10T19:11:18.023Z,3.81
2023-04-10T19:21:20.472Z,3.59
2023-04-10T19:31:24.639Z,3.29
2023-04-10T19:41:28.148Z,3.10
2023-04-10T19:51:30.549Z,3.02
2023-04-10T20:01:33.925Z,2.89
2023-04-10T20:11:36.528Z,2.59
2023-04-10T20:21:38.862Z,2.42
2023-04-10T20:40:09.514Z,2.13
2023-04-10T20:50:12.982Z,2.34
2023-04-10T21:00:16.160Z,2.10
2023-04-10T21:10:18.488Z,2.26
2023-04-10T21:20:20.777Z,2.22
2023-04-10T21:30:23.081Z,2.22
2023-04-10T21:40:25.676Z,2.22
2023-04-10T21:50:28.029Z,2.22
2023-04-10T22:00:30.783Z,2.00
2023-04-10T22:10:33.049Z,2.26
2023-04-10T22:20:35.517Z,2.65
2023-04-10T22:30:37.806Z,2.81
2023-04-10T22:40:40.169Z,3.03
2023-04-10T22:50:42.558Z,5.46
2023-04-10T23:00:44.944Z,6.51
2023-04-10T23:10:47.174Z,7.26
2023-04-10T23:20:50.659Z,7.59
2023-04-10T23:30:53.181Z,7.91
2023-04-10T23:40:55.513Z,8.50
2023-04-10T23:51:05.505Z,7.60
